메인 페이지
METAR-TAF:

METAR-TAF

공항 :

University of Oklahoma Westheimer Airport

Norman, 오클라호마, 미국

위도: 35-13N, 경도: 097-27W, 고도: 357m

현재 날씨관측

예보는 28분 전, 11:35시(UTC)에 발표되었습니다.
9kt
온도 11°C
습도 100%
기압 1023 hPa
시정: 16.1km
맑음

METAR: KOUN 201135Z AUTO 01009KT 10SM CLR 11/11 A3022 RMK AO2 T01140111

시각: 07:03 (12:03 UTC)

예보

예보는 6 시간 40분 전, 05:23시(UTC)에 발표되었습니다.
예보 대상 시간: 20일 06시부터 21일 06시까지 (UTC)
여러 방향의 바람 3kt
시정: 4.8km
고도 25000ft 상공 구름 보통
박무
일시적
20일 06시부터 20일 09시까지 (UTC)
시정: 0.8km
고도 200ft 상공
안개
20일 0900시부터 (UTC)
6kt
시정: 6.4km
고도 25000ft 상공 구름 보통
박무
일시적
20일 09시부터 20일 11시까지 (UTC)
시정: 0.8km
고도 200ft 상공
안개
20일 1300시부터 (UTC)
북북동10kt
시정: 10km
맑음

TAF: KOUN 200523Z 2006/2106 VRB03KT 3SM BR SCT250 TEMPO 2006/2009 1/2SM FG VV002 FM200900 36006KT 4SM BR SCT250 TEMPO 2009/2011 1/2SM FG VV002 FM201300 02010KT P6SM SKC

4,000개 이상의 공항 관측 자료 및 예보 (METAR 및 TAF 보고).

지도상에서 검색 가능한 기상관측소가 노란 점과 빨간 점으로 표시되어 있습니다.

기상관측소 명을 보려면 표시 위로 마우스를 이동하세요.

날씨 관측과 예보를 보려면 클릭하세요.

지도 변경 : 확대하려면 엑스 표시가 있는 녹색 버튼, 축소하려면 빼기 표시가 있는 녹색 버튼, 다음 페이지의 지도를 보려면 녹색 화살표를 클릭하세요.


METAR-TAF: